createdAt,value
2022-08-09T00:08:42.451Z,15.45
2022-08-09T00:18:45.822Z,15.26
2022-08-09T00:28:51.293Z,15.19
2022-08-09T00:38:55.941Z,15.28
2022-08-09T00:49:00.159Z,15.08
2022-08-09T00:59:03.762Z,14.99
2022-08-09T01:09:19.722Z,14.93
2022-08-09T01:19:39.893Z,14.87
2022-08-09T01:29:55.711Z,14.86
2022-08-09T01:40:01.587Z,14.83
2022-08-09T01:50:09.631Z,14.53
2022-08-09T02:00:35.174Z,14.18
2022-08-09T02:10:42.822Z,14.06
2022-08-09T02:20:58.853Z,13.79
2022-08-09T02:31:07.128Z,13.60
2022-08-09T02:41:15.340Z,13.63
2022-08-09T02:51:22.663Z,13.51
2022-08-09T03:02:05.166Z,13.48
2022-08-09T03:12:05.944Z,13.47
2022-08-09T03:22:25.129Z,13.39
2022-08-09T03:32:31.263Z,13.27
2022-08-09T03:42:34.490Z,13.04
2022-08-09T03:52:42.415Z,13.03
2022-08-09T04:02:46.145Z,12.87
2022-08-09T04:12:56.800Z,12.73
2022-08-09T04:23:00.505Z,12.44
2022-08-09T04:33:06.095Z,12.66
2022-08-09T04:43:10.565Z,12.84
2022-08-09T04:53:17.767Z,12.91
2022-08-09T05:03:40.390Z,13.16
2022-08-09T05:13:44.689Z,13.53
2022-08-09T05:23:54.625Z,13.96
2022-08-09T05:34:04.000Z,14.42
2022-08-09T05:44:07.011Z,14.74
2022-08-09T05:54:17.806Z,15.10
2022-08-09T06:04:23.583Z,15.52
2022-08-09T06:14:28.550Z,16.01
2022-08-09T06:24:31.438Z,16.51
2022-08-09T06:34:35.589Z,17.03
2022-08-09T06:44:39.361Z,17.47
2022-08-09T06:54:43.661Z,17.90
2022-08-09T07:04:46.547Z,18.39
2022-08-09T07:14:53.401Z,18.73
2022-08-09T07:24:56.348Z,19.05
2022-08-09T07:35:00.384Z,19.44
2022-08-09T07:45:06.633Z,19.79
2022-08-09T07:55:28.656Z,20.48
2022-08-09T08:05:54.394Z,20.26
2022-08-09T08:15:55.605Z,20.51
2022-08-09T08:26:06.399Z,20.25
2022-08-09T08:36:10.970Z,20.58
2022-08-09T08:46:33.438Z,20.64
2022-08-09T08:56:45.499Z,21.03
2022-08-09T09:06:57.579Z,21.74
2022-08-09T09:17:02.740Z,21.92
2022-08-09T09:27:47.223Z,21.80
2022-08-09T09:37:36.185Z,22.11
2022-08-09T09:47:56.215Z,23.13
2022-08-09T09:58:12.568Z,23.03
2022-08-09T10:08:27.558Z,22.93
2022-08-09T10:18:32.472Z,23.38
2022-08-09T10:28:36.104Z,23.64
2022-08-09T10:38:55.942Z,23.65
2022-08-09T10:49:07.785Z,23.97
2022-08-09T10:59:31.877Z,24.23
2022-08-09T11:09:56.138Z,24.04
2022-08-09T11:20:12.841Z,24.41
2022-08-09T11:30:34.659Z,25.22
2022-08-09T11:40:40.913Z,33.60
2022-08-09T11:52:49.124Z,38.74
2022-08-09T12:02:01.112Z,40.42
2022-08-09T12:12:03.288Z,41.69
2022-08-09T12:22:08.118Z,40.86
2022-08-09T12:32:13.128Z,40.13
2022-08-09T12:42:19.967Z,40.21
2022-08-09T12:52:42.813Z,39.58
2022-08-09T13:03:05.199Z,32.48
2022-08-09T13:13:10.842Z,29.47
2022-08-09T13:24:16.935Z,28.41
2022-08-09T13:33:53.690Z,27.73
2022-08-09T13:43:58.301Z,27.80
2022-08-09T13:54:01.930Z,27.05
2022-08-09T14:04:11.653Z,27.26
2022-08-09T14:14:23.937Z,27.05
2022-08-09T14:24:32.453Z,26.97
2022-08-09T14:34:36.600Z,27.27
2022-08-09T14:44:48.522Z,26.99
2022-08-09T14:54:52.440Z,26.63
2022-08-09T15:04:56.625Z,26.46
2022-08-09T15:15:01.357Z,26.38
2022-08-09T15:25:06.545Z,26.27
2022-08-09T15:35:18.161Z,25.99
2022-08-09T15:45:29.689Z,25.82
2022-08-09T15:55:35.227Z,25.61
2022-08-09T16:06:03.307Z,25.47
2022-08-09T16:16:13.516Z,25.06
2022-08-09T16:26:35.602Z,24.95
2022-08-09T16:36:39.178Z,24.48
2022-08-09T16:46:55.005Z,24.51
2022-08-09T16:56:58.234Z,24.18
2022-08-09T17:08:41.504Z,23.99
2022-08-09T17:17:27.417Z,23.83
2022-08-09T17:27:32.398Z,23.53
2022-08-09T17:38:02.497Z,23.47
2022-08-09T17:48:02.681Z,23.40
2022-08-09T17:58:08.808Z,23.28
2022-08-09T18:08:13.767Z,23.07
2022-08-09T18:18:25.730Z,22.62
2022-08-09T18:30:37.646Z,22.26
2022-08-09T18:39:00.755Z,21.89
2022-08-09T18:49:06.004Z,21.70
2022-08-09T18:59:09.249Z,21.46
2022-08-09T19:09:20.571Z,21.14
2022-08-09T19:19:41.298Z,20.65
2022-08-09T19:30:22.749Z,20.17
2022-08-09T19:40:10.443Z,19.98
2022-08-09T19:50:48.986Z,19.73
2022-08-09T20:00:42.190Z,19.35
2022-08-09T20:10:47.748Z,18.97
2022-08-09T20:20:55.066Z,18.83
2022-08-09T20:30:59.821Z,18.71
2022-08-09T20:41:05.935Z,18.54
2022-08-09T20:51:19.693Z,18.43
2022-08-09T21:01:34.635Z,18.32
2022-08-09T21:22:36.114Z,17.95
2022-08-09T21:32:33.490Z,17.89
2022-08-09T21:42:36.776Z,17.72
2022-08-09T21:52:44.328Z,17.65
2022-08-09T22:02:58.450Z,17.62
2022-08-09T22:13:07.538Z,17.20
2022-08-09T22:23:14.242Z,17.18
2022-08-09T22:33:19.535Z,17.13
2022-08-09T22:44:01.896Z,17.13
2022-08-09T22:54:01.021Z,17.13
2022-08-09T23:04:07.196Z,17.05
2022-08-09T23:14:16.956Z,16.94
2022-08-09T23:24:20.287Z,16.88
2022-08-09T23:34:24.286Z,16.77
2022-08-09T23:44:27.019Z,16.61
2022-08-09T23:54:31.146Z,16.63
